sensor_id;sensor_type;location;lat;lon;timestamp;P1;durP1;ratioP1;P2;durP2;ratioP2
8564;SDS011;4320;51.498;6.556;2022-10-30T00:00:50;9.55;;;4.40;;
8564;SDS011;4320;51.498;6.556;2022-10-30T00:03:16;9.50;;;4.70;;
8564;SDS011;4320;51.498;6.556;2022-10-30T00:05:43;12.45;;;5.32;;
8564;SDS011;4320;51.498;6.556;2022-10-30T00:08:14;10.82;;;4.90;;
8564;SDS011;4320;51.498;6.556;2022-10-30T00:10:41;8.45;;;4.65;;
8564;SDS011;4320;51.498;6.556;2022-10-30T00:13:08;11.63;;;5.32;;
8564;SDS011;4320;51.498;6.556;2022-10-30T00:15:34;11.88;;;4.90;;
8564;SDS011;4320;51.498;6.556;2022-10-30T00:18:01;9.80;;;4.28;;
8564;SDS011;4320;51.498;6.556;2022-10-30T00:20:27;8.50;;;4.90;;
8564;SDS011;4320;51.498;6.556;2022-10-30T00:22:52;9.70;;;4.65;;
8564;SDS011;4320;51.498;6.556;2022-10-30T00:25:18;9.18;;;4.25;;
8564;SDS011;4320;51.498;6.556;2022-10-30T00:27:43;8.38;;;4.88;;
8564;SDS011;4320;51.498;6.556;2022-10-30T00:30:09;10.10;;;4.72;;
8564;SDS011;4320;51.498;6.556;2022-10-30T00:32:36;9.02;;;4.90;;
8564;SDS011;4320;51.498;6.556;2022-10-30T00:35:01;11.85;;;5.07;;
8564;SDS011;4320;51.498;6.556;2022-10-30T00:37:27;10.10;;;5.00;;
8564;SDS011;4320;51.498;6.556;2022-10-30T00:39:53;11.65;;;4.78;;
8564;SDS011;4320;51.498;6.556;2022-10-30T00:42:18;16.15;;;5.18;;
8564;SDS011;4320;51.498;6.556;2022-10-30T00:47:27;9.88;;;4.40;;
8564;SDS011;4320;51.498;6.556;2022-10-30T00:50:02;9.13;;;4.25;;
8564;SDS011;4320;51.498;6.556;2022-10-30T00:52:30;11.00;;;4.68;;
8564;SDS011;4320;51.498;6.556;2022-10-30T00:55:05;8.77;;;5.20;;
8564;SDS011;4320;51.498;6.556;2022-10-30T00:57:37;9.05;;;4.45;;
8564;SDS011;4320;51.498;6.556;2022-10-30T01:00:05;8.98;;;4.53;;
8564;SDS011;4320;51.498;6.556;2022-10-30T01:02:31;17.13;;;4.85;;
8564;SDS011;4320;51.498;6.556;2022-10-30T01:04:57;9.45;;;5.18;;
8564;SDS011;4320;51.498;6.556;2022-10-30T01:07:24;10.65;;;5.32;;
8564;SDS011;4320;51.498;6.556;2022-10-30T01:09:50;6.38;;;4.18;;
8564;SDS011;4320;51.498;6.556;2022-10-30T01:12:16;9.43;;;5.20;;
8564;SDS011;4320;51.498;6.556;2022-10-30T01:14:43;9.75;;;4.80;;
8564;SDS011;4320;51.498;6.556;2022-10-30T01:19:55;10.20;;;4.43;;
8564;SDS011;4320;51.498;6.556;2022-10-30T01:27:48;10.20;;;4.72;;
8564;SDS011;4320;51.498;6.556;2022-10-30T01:30:22;8.43;;;4.03;;
8564;SDS011;4320;51.498;6.556;2022-10-30T01:35:54;16.48;;;5.15;;
8564;SDS011;4320;51.498;6.556;2022-10-30T01:39:04;12.85;;;4.85;;
8564;SDS011;4320;51.498;6.556;2022-10-30T01:41:36;8.70;;;4.88;;
8564;SDS011;4320;51.498;6.556;2022-10-30T01:44:02;7.68;;;4.57;;
8564;SDS011;4320;51.498;6.556;2022-10-30T01:46:38;8.48;;;4.80;;
8564;SDS011;4320;51.498;6.556;2022-10-30T01:52:01;14.70;;;5.07;;
8564;SDS011;4320;51.498;6.556;2022-10-30T02:00:09;8.43;;;4.90;;
8564;SDS011;4320;51.498;6.556;2022-10-30T02:02:37;10.20;;;5.30;;
8564;SDS011;4320;51.498;6.556;2022-10-30T02:05:04;10.23;;;5.18;;
8564;SDS011;4320;51.498;6.556;2022-10-30T02:07:31;8.35;;;5.53;;
8564;SDS011;4320;51.498;6.556;2022-10-30T02:09:57;9.52;;;5.05;;
8564;SDS011;4320;51.498;6.556;2022-10-30T02:12:23;8.85;;;4.90;;
8564;SDS011;4320;51.498;6.556;2022-10-30T02:14:51;10.07;;;5.03;;
8564;SDS011;4320;51.498;6.556;2022-10-30T02:17:20;8.52;;;5.85;;
8564;SDS011;4320;51.498;6.556;2022-10-30T02:19:46;8.60;;;5.63;;
8564;SDS011;4320;51.498;6.556;2022-10-30T02:22:11;12.32;;;5.78;;
8564;SDS011;4320;51.498;6.556;2022-10-30T02:24:37;9.57;;;4.97;;
8564;SDS011;4320;51.498;6.556;2022-10-30T02:27:02;11.63;;;5.45;;
8564;SDS011;4320;51.498;6.556;2022-10-30T02:29:28;10.80;;;5.07;;
8564;SDS011;4320;51.498;6.556;2022-10-30T02:31:54;12.27;;;5.20;;
8564;SDS011;4320;51.498;6.556;2022-10-30T02:34:19;8.80;;;5.13;;
8564;SDS011;4320;51.498;6.556;2022-10-30T02:36:45;11.40;;;6.40;;
8564;SDS011;4320;51.498;6.556;2022-10-30T02:39:11;9.82;;;5.55;;
8564;SDS011;4320;51.498;6.556;2022-10-30T02:41:36;15.15;;;6.30;;
8564;SDS011;4320;51.498;6.556;2022-10-30T02:44:02;11.38;;;5.28;;
8564;SDS011;4320;51.498;6.556;2022-10-30T02:46:28;9.48;;;5.38;;
8564;SDS011;4320;51.498;6.556;2022-10-30T02:48:54;10.15;;;5.47;;
8564;SDS011;4320;51.498;6.556;2022-10-30T02:51:20;12.93;;;5.30;;
8564;SDS011;4320;51.498;6.556;2022-10-30T02:53:45;12.13;;;6.32;;
8564;SDS011;4320;51.498;6.556;2022-10-30T02:56:12;12.50;;;5.53;;
8564;SDS011;4320;51.498;6.556;2022-10-30T02:58:38;10.52;;;5.72;;
8564;SDS011;4320;51.498;6.556;2022-10-30T03:01:09;14.20;;;6.00;;
8564;SDS011;4320;51.498;6.556;2022-10-30T03:03:39;12.23;;;5.32;;
8564;SDS011;4320;51.498;6.556;2022-10-30T03:06:06;13.85;;;5.97;;
8564;SDS011;4320;51.498;6.556;2022-10-30T03:08:33;10.85;;;6.03;;
8564;SDS011;4320;51.498;6.556;2022-10-30T03:11:04;13.43;;;5.50;;
8564;SDS011;4320;51.498;6.556;2022-10-30T03:13:33;10.98;;;5.78;;
8564;SDS011;4320;51.498;6.556;2022-10-30T03:16:03;14.10;;;6.00;;
8564;SDS011;4320;51.498;6.556;2022-10-30T03:18:31;12.18;;;5.55;;
8564;SDS011;4320;51.498;6.556;2022-10-30T03:20:58;9.20;;;5.20;;
8564;SDS011;4320;51.498;6.556;2022-10-30T03:23:25;9.10;;;5.90;;
8564;SDS011;4320;51.498;6.556;2022-10-30T03:25:52;10.15;;;6.28;;
8564;SDS011;4320;51.498;6.556;2022-10-30T03:28:19;12.45;;;6.07;;
8564;SDS011;4320;51.498;6.556;2022-10-30T03:30:46;9.65;;;5.05;;
8564;SDS011;4320;51.498;6.556;2022-10-30T03:33:12;10.65;;;5.72;;
8564;SDS011;4320;51.498;6.556;2022-10-30T03:35:37;11.38;;;6.43;;
8564;SDS011;4320;51.498;6.556;2022-10-30T03:38:03;11.98;;;6.07;;
8564;SDS011;4320;51.498;6.556;2022-10-30T03:40:29;10.75;;;5.55;;
8564;SDS011;4320;51.498;6.556;2022-10-30T03:42:54;12.35;;;6.50;;
8564;SDS011;4320;51.498;6.556;2022-10-30T03:45:20;10.75;;;5.53;;
8564;SDS011;4320;51.498;6.556;2022-10-30T03:47:45;9.68;;;5.88;;
8564;SDS011;4320;51.498;6.556;2022-10-30T03:50:11;11.98;;;6.07;;
8564;SDS011;4320;51.498;6.556;2022-10-30T03:52:37;10.32;;;5.75;;
8564;SDS011;4320;51.498;6.556;2022-10-30T03:55:02;14.05;;;5.85;;
8564;SDS011;4320;51.498;6.556;2022-10-30T03:57:28;15.57;;;6.40;;
8564;SDS011;4320;51.498;6.556;2022-10-30T03:59:54;14.05;;;6.55;;
8564;SDS011;4320;51.498;6.556;2022-10-30T04:02:19;16.40;;;6.38;;
8564;SDS011;4320;51.498;6.556;2022-10-30T04:04:45;10.07;;;5.55;;
8564;SDS011;4320;51.498;6.556;2022-10-30T04:07:10;9.60;;;6.00;;
8564;SDS011;4320;51.498;6.556;2022-10-30T04:09:36;10.45;;;5.93;;
8564;SDS011;4320;51.498;6.556;2022-10-30T04:12:02;14.95;;;6.07;;
8564;SDS011;4320;51.498;6.556;2022-10-30T04:14:28;11.25;;;5.75;;
8564;SDS011;4320;51.498;6.556;2022-10-30T04:16:54;13.43;;;6.18;;
8564;SDS011;4320;51.498;6.556;2022-10-30T04:19:19;8.90;;;5.93;;
8564;SDS011;4320;51.498;6.556;2022-10-30T04:21:45;12.10;;;6.65;;
8564;SDS011;4320;51.498;6.556;2022-10-30T04:24:11;11.90;;;5.93;;
8564;SDS011;4320;51.498;6.556;2022-10-30T04:26:40;8.63;;;5.90;;
8564;SDS011;4320;51.498;6.556;2022-10-30T04:29:21;9.07;;;5.78;;
8564;SDS011;4320;51.498;6.556;2022-10-30T04:31:46;13.60;;;5.88;;
8564;SDS011;4320;51.498;6.556;2022-10-30T04:34:12;11.77;;;6.50;;
8564;SDS011;4320;51.498;6.556;2022-10-30T04:36:37;13.75;;;6.47;;
8564;SDS011;4320;51.498;6.556;2022-10-30T04:39:03;15.48;;;6.40;;
8564;SDS011;4320;51.498;6.556;2022-10-30T04:41:29;8.63;;;6.18;;
8564;SDS011;4320;51.498;6.556;2022-10-30T04:43:55;9.55;;;6.38;;
8564;SDS011;4320;51.498;6.556;2022-10-30T04:46:20;12.02;;;6.13;;
8564;SDS011;4320;51.498;6.556;2022-10-30T04:48:46;12.98;;;6.55;;
8564;SDS011;4320;51.498;6.556;2022-10-30T04:51:12;18.55;;;6.93;;
8564;SDS011;4320;51.498;6.556;2022-10-30T04:53:38;9.90;;;6.60;;
8564;SDS011;4320;51.498;6.556;2022-10-30T04:56:04;11.45;;;5.65;;
8564;SDS011;4320;51.498;6.556;2022-10-30T04:58:30;16.20;;;6.25;;
8564;SDS011;4320;51.498;6.556;2022-10-30T05:00:59;9.98;;;6.20;;
8564;SDS011;4320;51.498;6.556;2022-10-30T05:03:26;9.98;;;6.50;;
8564;SDS011;4320;51.498;6.556;2022-10-30T05:08:55;14.75;;;7.57;;
8564;SDS011;4320;51.498;6.556;2022-10-30T05:11:21;13.65;;;6.70;;
8564;SDS011;4320;51.498;6.556;2022-10-30T05:13:47;12.38;;;6.60;;
8564;SDS011;4320;51.498;6.556;2022-10-30T05:16:12;10.93;;;5.45;;
8564;SDS011;4320;51.498;6.556;2022-10-30T05:18:38;12.50;;;6.78;;
8564;SDS011;4320;51.498;6.556;2022-10-30T05:21:04;12.60;;;6.40;;
8564;SDS011;4320;51.498;6.556;2022-10-30T05:23:30;10.52;;;5.95;;
8564;SDS011;4320;51.498;6.556;2022-10-30T05:25:55;13.20;;;7.40;;
8564;SDS011;4320;51.498;6.556;2022-10-30T05:28:21;14.63;;;7.35;;
8564;SDS011;4320;51.498;6.556;2022-10-30T05:30:46;15.48;;;7.40;;
8564;SDS011;4320;51.498;6.556;2022-10-30T05:33:16;9.82;;;6.90;;
8564;SDS011;4320;51.498;6.556;2022-10-30T05:35:42;13.68;;;6.57;;
8564;SDS011;4320;51.498;6.556;2022-10-30T05:38:07;10.95;;;6.05;;
8564;SDS011;4320;51.498;6.556;2022-10-30T05:40:34;10.38;;;6.63;;
8564;SDS011;4320;51.498;6.556;2022-10-30T05:43:00;12.10;;;6.38;;
8564;SDS011;4320;51.498;6.556;2022-10-30T05:45:25;9.98;;;6.75;;
8564;SDS011;4320;51.498;6.556;2022-10-30T05:47:58;13.88;;;6.45;;
8564;SDS011;4320;51.498;6.556;2022-10-30T05:50:28;12.63;;;7.03;;
8564;SDS011;4320;51.498;6.556;2022-10-30T05:52:55;10.60;;;5.97;;
8564;SDS011;4320;51.498;6.556;2022-10-30T05:55:21;10.82;;;6.43;;
8564;SDS011;4320;51.498;6.556;2022-10-30T05:57:47;11.85;;;6.13;;
8564;SDS011;4320;51.498;6.556;2022-10-30T06:00:12;12.13;;;6.10;;
8564;SDS011;4320;51.498;6.556;2022-10-30T06:02:38;11.13;;;6.38;;
8564;SDS011;4320;51.498;6.556;2022-10-30T06:05:04;10.55;;;7.18;;
8564;SDS011;4320;51.498;6.556;2022-10-30T06:07:30;11.02;;;6.22;;
8564;SDS011;4320;51.498;6.556;2022-10-30T06:09:56;11.85;;;6.38;;
8564;SDS011;4320;51.498;6.556;2022-10-30T06:12:21;11.10;;;5.97;;
8564;SDS011;4320;51.498;6.556;2022-10-30T06:14:47;14.02;;;7.00;;
8564;SDS011;4320;51.498;6.556;2022-10-30T06:17:12;11.63;;;6.53;;
8564;SDS011;4320;51.498;6.556;2022-10-30T06:19:38;11.32;;;6.85;;
8564;SDS011;4320;51.498;6.556;2022-10-30T06:22:04;14.15;;;6.90;;
8564;SDS011;4320;51.498;6.556;2022-10-30T06:24:29;12.32;;;6.38;;
8564;SDS011;4320;51.498;6.556;2022-10-30T06:26:55;11.23;;;6.50;;
8564;SDS011;4320;51.498;6.556;2022-10-30T06:29:20;14.95;;;7.35;;
8564;SDS011;4320;51.498;6.556;2022-10-30T06:31:46;14.77;;;7.43;;
8564;SDS011;4320;51.498;6.556;2022-10-30T06:34:12;12.60;;;6.47;;
8564;SDS011;4320;51.498;6.556;2022-10-30T06:36:37;10.98;;;6.30;;
8564;SDS011;4320;51.498;6.556;2022-10-30T06:39:03;10.70;;;6.78;;
8564;SDS011;4320;51.498;6.556;2022-10-30T06:41:28;15.02;;;6.72;;
8564;SDS011;4320;51.498;6.556;2022-10-30T06:43:54;11.65;;;6.57;;
8564;SDS011;4320;51.498;6.556;2022-10-30T06:46:19;11.95;;;7.70;;
8564;SDS011;4320;51.498;6.556;2022-10-30T06:48:45;14.60;;;6.40;;
8564;SDS011;4320;51.498;6.556;2022-10-30T06:51:11;13.15;;;7.07;;
8564;SDS011;4320;51.498;6.556;2022-10-30T06:53:40;12.52;;;6.90;;
8564;SDS011;4320;51.498;6.556;2022-10-30T06:56:05;10.70;;;7.03;;
8564;SDS011;4320;51.498;6.556;2022-10-30T06:58:32;11.70;;;6.95;;
8564;SDS011;4320;51.498;6.556;2022-10-30T07:01:03;9.95;;;6.93;;
8564;SDS011;4320;51.498;6.556;2022-10-30T07:03:29;15.90;;;6.88;;
8564;SDS011;4320;51.498;6.556;2022-10-30T07:05:55;9.48;;;6.45;;
8564;SDS011;4320;51.498;6.556;2022-10-30T07:08:20;13.25;;;7.25;;
8564;SDS011;4320;51.498;6.556;2022-10-30T07:10:46;13.52;;;7.43;;
8564;SDS011;4320;51.498;6.556;2022-10-30T07:13:12;12.13;;;6.95;;
8564;SDS011;4320;51.498;6.556;2022-10-30T07:15:37;13.57;;;6.72;;
8564;SDS011;4320;51.498;6.556;2022-10-30T07:18:03;12.00;;;6.57;;
8564;SDS011;4320;51.498;6.556;2022-10-30T07:20:30;12.35;;;6.65;;
8564;SDS011;4320;51.498;6.556;2022-10-30T07:22:57;15.70;;;6.53;;
8564;SDS011;4320;51.498;6.556;2022-10-30T07:25:24;11.60;;;6.30;;
8564;SDS011;4320;51.498;6.556;2022-10-30T07:27:50;12.25;;;6.40;;
8564;SDS011;4320;51.498;6.556;2022-10-30T07:30:17;11.45;;;6.35;;
8564;SDS011;4320;51.498;6.556;2022-10-30T07:32:45;13.43;;;6.22;;
8564;SDS011;4320;51.498;6.556;2022-10-30T07:35:11;12.30;;;6.80;;
8564;SDS011;4320;51.498;6.556;2022-10-30T07:37:38;15.45;;;6.45;;
8564;SDS011;4320;51.498;6.556;2022-10-30T07:40:04;10.80;;;6.22;;
8564;SDS011;4320;51.498;6.556;2022-10-30T07:42:31;12.88;;;6.53;;
8564;SDS011;4320;51.498;6.556;2022-10-30T07:44:57;12.70;;;6.57;;
8564;SDS011;4320;51.498;6.556;2022-10-30T07:47:23;15.23;;;7.00;;
8564;SDS011;4320;51.498;6.556;2022-10-30T07:49:49;10.00;;;6.60;;
8564;SDS011;4320;51.498;6.556;2022-10-30T07:52:14;13.98;;;6.80;;
8564;SDS011;4320;51.498;6.556;2022-10-30T07:54:40;11.10;;;7.05;;
8564;SDS011;4320;51.498;6.556;2022-10-30T07:57:06;13.15;;;7.25;;
8564;SDS011;4320;51.498;6.556;2022-10-30T07:59:32;14.05;;;7.20;;
8564;SDS011;4320;51.498;6.556;2022-10-30T08:01:57;13.18;;;6.68;;
8564;SDS011;4320;51.498;6.556;2022-10-30T08:04:24;14.75;;;6.40;;
8564;SDS011;4320;51.498;6.556;2022-10-30T08:06:50;11.10;;;6.65;;
8564;SDS011;4320;51.498;6.556;2022-10-30T08:09:17;11.48;;;6.82;;
8564;SDS011;4320;51.498;6.556;2022-10-30T08:11:42;9.45;;;6.60;;
8564;SDS011;4320;51.498;6.556;2022-10-30T08:14:08;11.20;;;6.47;;
8564;SDS011;4320;51.498;6.556;2022-10-30T08:16:33;13.93;;;7.00;;
8564;SDS011;4320;51.498;6.556;2022-10-30T08:18:59;15.32;;;7.05;;
8564;SDS011;4320;51.498;6.556;2022-10-30T08:21:25;13.07;;;6.93;;
8564;SDS011;4320;51.498;6.556;2022-10-30T08:23:50;14.02;;;7.03;;
8564;SDS011;4320;51.498;6.556;2022-10-30T08:26:16;11.75;;;6.20;;
8564;SDS011;4320;51.498;6.556;2022-10-30T08:28:42;15.68;;;6.68;;
8564;SDS011;4320;51.498;6.556;2022-10-30T08:31:07;11.93;;;6.55;;
8564;SDS011;4320;51.498;6.556;2022-10-30T08:33:33;13.25;;;6.78;;
8564;SDS011;4320;51.498;6.556;2022-10-30T08:35:59;9.57;;;6.03;;
8564;SDS011;4320;51.498;6.556;2022-10-30T08:38:26;11.52;;;6.13;;
8564;SDS011;4320;51.498;6.556;2022-10-30T08:40:52;14.18;;;6.43;;
8564;SDS011;4320;51.498;6.556;2022-10-30T08:43:18;16.20;;;7.18;;
8564;SDS011;4320;51.498;6.556;2022-10-30T08:45:44;13.45;;;6.32;;
8564;SDS011;4320;51.498;6.556;2022-10-30T08:48:11;13.13;;;7.18;;
8564;SDS011;4320;51.498;6.556;2022-10-30T08:50:38;12.18;;;6.45;;
8564;SDS011;4320;51.498;6.556;2022-10-30T08:53:05;13.90;;;6.20;;
8564;SDS011;4320;51.498;6.556;2022-10-30T08:55:33;14.57;;;6.55;;
8564;SDS011;4320;51.498;6.556;2022-10-30T08:57:59;16.33;;;7.30;;
8564;SDS011;4320;51.498;6.556;2022-10-30T09:00:25;13.00;;;6.50;;
8564;SDS011;4320;51.498;6.556;2022-10-30T09:02:52;15.10;;;7.28;;
8564;SDS011;4320;51.498;6.556;2022-10-30T09:05:17;18.63;;;6.65;;
8564;SDS011;4320;51.498;6.556;2022-10-30T09:07:44;9.77;;;6.18;;
8564;SDS011;4320;51.498;6.556;2022-10-30T09:10:10;13.15;;;6.97;;
8564;SDS011;4320;51.498;6.556;2022-10-30T09:12:36;12.13;;;6.05;;
8564;SDS011;4320;51.498;6.556;2022-10-30T09:15:02;11.63;;;6.30;;
8564;SDS011;4320;51.498;6.556;2022-10-30T09:17:28;14.68;;;6.53;;
8564;SDS011;4320;51.498;6.556;2022-10-30T09:19:54;11.60;;;5.97;;
8564;SDS011;4320;51.498;6.556;2022-10-30T09:22:20;17.23;;;6.60;;
8564;SDS011;4320;51.498;6.556;2022-10-30T09:24:46;11.63;;;5.97;;
8564;SDS011;4320;51.498;6.556;2022-10-30T09:27:11;10.70;;;6.22;;
8564;SDS011;4320;51.498;6.556;2022-10-30T09:29:37;10.13;;;6.20;;
8564;SDS011;4320;51.498;6.556;2022-10-30T09:32:03;9.88;;;5.80;;
8564;SDS011;4320;51.498;6.556;2022-10-30T09:34:32;12.32;;;6.43;;
8564;SDS011;4320;51.498;6.556;2022-10-30T09:36:58;14.55;;;6.60;;
8564;SDS011;4320;51.498;6.556;2022-10-30T09:39:24;10.45;;;6.85;;
8564;SDS011;4320;51.498;6.556;2022-10-30T09:49:57;8.93;;;6.65;;
8564;SDS011;4320;51.498;6.556;2022-10-30T09:55:41;14.18;;;6.13;;
8564;SDS011;4320;51.498;6.556;2022-10-30T10:01:01;14.82;;;6.15;;
8564;SDS011;4320;51.498;6.556;2022-10-30T10:06:26;11.25;;;5.50;;
8564;SDS011;4320;51.498;6.556;2022-10-30T10:08:54;13.25;;;6.18;;
8564;SDS011;4320;51.498;6.556;2022-10-30T10:11:26;76.05;;;14.77;;
8564;SDS011;4320;51.498;6.556;2022-10-30T10:16:59;14.55;;;5.72;;
8564;SDS011;4320;51.498;6.556;2022-10-30T10:19:29;8.93;;;5.15;;
8564;SDS011;4320;51.498;6.556;2022-10-30T10:22:00;15.27;;;5.88;;
8564;SDS011;4320;51.498;6.556;2022-10-30T10:24:30;8.95;;;4.95;;
8564;SDS011;4320;51.498;6.556;2022-10-30T10:32:36;13.70;;;5.05;;
8564;SDS011;4320;51.498;6.556;2022-10-30T10:49:41;9.05;;;4.10;;
8564;SDS011;4320;51.498;6.556;2022-10-30T10:52:17;7.30;;;4.18;;
8564;SDS011;4320;51.498;6.556;2022-10-30T10:54:48;8.68;;;4.30;;
8564;SDS011;4320;51.498;6.556;2022-10-30T10:57:31;7.30;;;3.75;;
8564;SDS011;4320;51.498;6.556;2022-10-30T11:00:02;11.63;;;5.00;;
8564;SDS011;4320;51.498;6.556;2022-10-30T11:05:11;8.40;;;4.07;;
8564;SDS011;4320;51.498;6.556;2022-10-30T11:07:49;12.77;;;4.53;;
8564;SDS011;4320;51.498;6.556;2022-10-30T11:10:16;4.95;;;3.60;;
8564;SDS011;4320;51.498;6.556;2022-10-30T11:12:43;9.77;;;3.92;;
8564;SDS011;4320;51.498;6.556;2022-10-30T11:17:52;10.57;;;5.30;;
8564;SDS011;4320;51.498;6.556;2022-10-30T11:20:22;8.52;;;4.53;;
8564;SDS011;4320;51.498;6.556;2022-10-30T11:23:28;8.85;;;3.97;;
8564;SDS011;4320;51.498;6.556;2022-10-30T11:25:56;12.50;;;4.00;;
8564;SDS011;4320;51.498;6.556;2022-10-30T11:28:30;11.10;;;3.78;;
8564;SDS011;4320;51.498;6.556;2022-10-30T11:33:45;10.85;;;4.00;;
8564;SDS011;4320;51.498;6.556;2022-10-30T11:36:13;9.82;;;4.53;;
8564;SDS011;4320;51.498;6.556;2022-10-30T11:38:40;7.38;;;3.97;;
8564;SDS011;4320;51.498;6.556;2022-10-30T11:41:06;9.85;;;4.22;;
8564;SDS011;4320;51.498;6.556;2022-10-30T11:43:34;9.38;;;4.20;;
8564;SDS011;4320;51.498;6.556;2022-10-30T11:46:03;7.93;;;4.47;;
8564;SDS011;4320;51.498;6.556;2022-10-30T11:48:33;11.30;;;4.68;;
8564;SDS011;4320;51.498;6.556;2022-10-30T11:51:03;9.43;;;4.32;;
8564;SDS011;4320;51.498;6.556;2022-10-30T11:53:31;12.48;;;4.57;;
8564;SDS011;4320;51.498;6.556;2022-10-30T11:56:09;9.63;;;4.22;;
8564;SDS011;4320;51.498;6.556;2022-10-30T11:58:43;8.55;;;4.35;;
8564;SDS011;4320;51.498;6.556;2022-10-30T12:01:21;10.60;;;4.40;;
8564;SDS011;4320;51.498;6.556;2022-10-30T12:03:48;5.85;;;4.32;;
8564;SDS011;4320;51.498;6.556;2022-10-30T12:09:19;8.80;;;4.40;;
8564;SDS011;4320;51.498;6.556;2022-10-30T12:11:40;12.57;;;4.40;;
8564;SDS011;4320;51.498;6.556;2022-10-30T12:14:27;13.63;;;4.70;;
8564;SDS011;4320;51.498;6.556;2022-10-30T12:16:54;9.40;;;4.22;;
8564;SDS011;4320;51.498;6.556;2022-10-30T12:19:21;11.85;;;4.82;;
8564;SDS011;4320;51.498;6.556;2022-10-30T12:21:50;9.25;;;4.55;;
8564;SDS011;4320;51.498;6.556;2022-10-30T12:26:55;10.18;;;4.45;;
8564;SDS011;4320;51.498;6.556;2022-10-30T12:29:26;10.73;;;4.65;;
8564;SDS011;4320;51.498;6.556;2022-10-30T12:32:05;12.02;;;4.15;;
8564;SDS011;4320;51.498;6.556;2022-10-30T12:34:54;10.90;;;4.20;;
8564;SDS011;4320;51.498;6.556;2022-10-30T12:37:31;8.38;;;4.80;;
8564;SDS011;4320;51.498;6.556;2022-10-30T12:40:07;8.68;;;4.70;;
8564;SDS011;4320;51.498;6.556;2022-10-30T12:43:02;11.32;;;4.95;;
8564;SDS011;4320;51.498;6.556;2022-10-30T12:45:57;13.18;;;4.75;;
8564;SDS011;4320;51.498;6.556;2022-10-30T12:48:46;8.52;;;4.47;;
8564;SDS011;4320;51.498;6.556;2022-10-30T12:51:33;8.98;;;4.15;;
8564;SDS011;4320;51.498;6.556;2022-10-30T12:54:12;8.18;;;4.53;;
8564;SDS011;4320;51.498;6.556;2022-10-30T12:56:42;13.48;;;4.63;;
8564;SDS011;4320;51.498;6.556;2022-10-30T13:02:07;9.02;;;4.13;;
8564;SDS011;4320;51.498;6.556;2022-10-30T13:04:35;9.52;;;4.22;;
8564;SDS011;4320;51.498;6.556;2022-10-30T13:07:14;11.35;;;5.15;;
8564;SDS011;4320;51.498;6.556;2022-10-30T13:10:02;8.82;;;4.65;;
8564;SDS011;4320;51.498;6.556;2022-10-30T13:12:50;10.10;;;4.53;;
8564;SDS011;4320;51.498;6.556;2022-10-30T13:15:25;14.50;;;5.22;;
8564;SDS011;4320;51.498;6.556;2022-10-30T13:17:54;13.95;;;4.88;;
8564;SDS011;4320;51.498;6.556;2022-10-30T13:20:23;9.23;;;4.72;;
8564;SDS011;4320;51.498;6.556;2022-10-30T13:23:10;13.00;;;4.55;;
8564;SDS011;4320;51.498;6.556;2022-10-30T13:28:24;8.98;;;4.80;;
8564;SDS011;4320;51.498;6.556;2022-10-30T13:30:57;13.25;;;4.88;;
8564;SDS011;4320;51.498;6.556;2022-10-30T13:33:41;13.23;;;4.75;;
8564;SDS011;4320;51.498;6.556;2022-10-30T13:36:16;11.93;;;5.43;;
8564;SDS011;4320;51.498;6.556;2022-10-30T13:39:02;8.30;;;4.20;;
8564;SDS011;4320;51.498;6.556;2022-10-30T13:41:37;8.05;;;4.03;;
8564;SDS011;4320;51.498;6.556;2022-10-30T13:44:25;6.75;;;4.90;;
8564;SDS011;4320;51.498;6.556;2022-10-30T13:50:10;10.20;;;4.70;;
8564;SDS011;4320;51.498;6.556;2022-10-30T13:52:46;10.27;;;5.65;;
8564;SDS011;4320;51.498;6.556;2022-10-30T14:09:34;10.38;;;4.95;;
8564;SDS011;4320;51.498;6.556;2022-10-30T14:23:21;20.00;;;5.90;;
8564;SDS011;4320;51.498;6.556;2022-10-30T14:28:27;10.70;;;6.00;;
8564;SDS011;4320;51.498;6.556;2022-10-30T14:33:43;10.70;;;4.28;;
8564;SDS011;4320;51.498;6.556;2022-10-30T14:39:40;10.52;;;4.65;;
8564;SDS011;4320;51.498;6.556;2022-10-30T14:58:28;8.73;;;4.80;;
8564;SDS011;4320;51.498;6.556;2022-10-30T15:08:58;8.40;;;4.68;;
8564;SDS011;4320;51.498;6.556;2022-10-30T15:14:21;13.38;;;5.63;;
8564;SDS011;4320;51.498;6.556;2022-10-30T15:17:15;13.18;;;5.10;;
8564;SDS011;4320;51.498;6.556;2022-10-30T15:19:51;10.15;;;5.07;;
8564;SDS011;4320;51.498;6.556;2022-10-30T15:22:18;12.63;;;6.32;;
8564;SDS011;4320;51.498;6.556;2022-10-30T15:24:46;11.55;;;5.28;;
8564;SDS011;4320;51.498;6.556;2022-10-30T15:27:14;13.88;;;5.90;;
8564;SDS011;4320;51.498;6.556;2022-10-30T15:29:43;10.40;;;5.22;;
8564;SDS011;4320;51.498;6.556;2022-10-30T15:32:24;14.93;;;6.20;;
8564;SDS011;4320;51.498;6.556;2022-10-30T15:34:58;10.40;;;6.05;;
8564;SDS011;4320;51.498;6.556;2022-10-30T15:37:26;13.38;;;6.07;;
8564;SDS011;4320;51.498;6.556;2022-10-30T15:42:42;13.30;;;5.70;;
8564;SDS011;4320;51.498;6.556;2022-10-30T15:45:11;13.65;;;6.00;;
8564;SDS011;4320;51.498;6.556;2022-10-30T15:47:46;13.05;;;6.13;;
8564;SDS011;4320;51.498;6.556;2022-10-30T15:50:13;19.75;;;5.65;;
8564;SDS011;4320;51.498;6.556;2022-10-30T15:52:40;10.13;;;5.28;;
8564;SDS011;4320;51.498;6.556;2022-10-30T15:55:08;10.55;;;5.55;;
8564;SDS011;4320;51.498;6.556;2022-10-30T15:57:42;11.13;;;5.65;;
8564;SDS011;4320;51.498;6.556;2022-10-30T16:00:21;11.27;;;6.07;;
8564;SDS011;4320;51.498;6.556;2022-10-30T16:03:33;12.65;;;5.50;;
8564;SDS011;4320;51.498;6.556;2022-10-30T16:05:37;10.93;;;6.45;;
8564;SDS011;4320;51.498;6.556;2022-10-30T16:08:10;14.50;;;6.63;;
8564;SDS011;4320;51.498;6.556;2022-10-30T16:10:39;11.07;;;5.88;;
8564;SDS011;4320;51.498;6.556;2022-10-30T16:13:09;11.60;;;5.32;;
8564;SDS011;4320;51.498;6.556;2022-10-30T16:15:57;9.07;;;5.88;;
8564;SDS011;4320;51.498;6.556;2022-10-30T16:18:28;11.82;;;6.15;;
8564;SDS011;4320;51.498;6.556;2022-10-30T16:20:59;10.02;;;6.05;;
8564;SDS011;4320;51.498;6.556;2022-10-30T16:23:27;13.70;;;6.35;;
8564;SDS011;4320;51.498;6.556;2022-10-30T16:25:55;15.05;;;6.78;;
8564;SDS011;4320;51.498;6.556;2022-10-30T16:28:25;12.38;;;7.03;;
8564;SDS011;4320;51.498;6.556;2022-10-30T16:31:05;14.43;;;7.75;;
8564;SDS011;4320;51.498;6.556;2022-10-30T16:33:38;14.68;;;7.55;;
8564;SDS011;4320;51.498;6.556;2022-10-30T16:36:05;13.68;;;6.93;;
8564;SDS011;4320;51.498;6.556;2022-10-30T16:38:33;19.63;;;7.60;;
8564;SDS011;4320;51.498;6.556;2022-10-30T16:41:04;13.95;;;7.55;;
8564;SDS011;4320;51.498;6.556;2022-10-30T16:43:31;17.40;;;7.22;;
8564;SDS011;4320;51.498;6.556;2022-10-30T16:48:38;13.65;;;6.63;;
8564;SDS011;4320;51.498;6.556;2022-10-30T16:51:11;9.68;;;6.80;;
8564;SDS011;4320;51.498;6.556;2022-10-30T16:53:39;13.88;;;6.95;;
8564;SDS011;4320;51.498;6.556;2022-10-30T16:56:15;16.45;;;7.75;;
8564;SDS011;4320;51.498;6.556;2022-10-30T16:58:50;16.42;;;8.18;;
8564;SDS011;4320;51.498;6.556;2022-10-30T17:01:24;13.38;;;8.07;;
8564;SDS011;4320;51.498;6.556;2022-10-30T17:03:54;18.35;;;9.25;;
8564;SDS011;4320;51.498;6.556;2022-10-30T17:08:59;19.40;;;10.38;;
8564;SDS011;4320;51.498;6.556;2022-10-30T17:11:45;16.20;;;9.15;;
8564;SDS011;4320;51.498;6.556;2022-10-30T17:14:23;21.35;;;9.98;;
8564;SDS011;4320;51.498;6.556;2022-10-30T17:16:53;14.98;;;8.65;;
8564;SDS011;4320;51.498;6.556;2022-10-30T17:21:54;17.25;;;10.35;;
8564;SDS011;4320;51.498;6.556;2022-10-30T17:24:27;15.85;;;9.35;;
8564;SDS011;4320;51.498;6.556;2022-10-30T17:26:58;15.32;;;9.43;;
8564;SDS011;4320;51.498;6.556;2022-10-30T17:32:27;16.00;;;9.30;;
8564;SDS011;4320;51.498;6.556;2022-10-30T17:35:05;17.35;;;9.45;;
8564;SDS011;4320;51.498;6.556;2022-10-30T17:37:40;16.00;;;8.65;;
8564;SDS011;4320;51.498;6.556;2022-10-30T17:40:06;21.13;;;10.95;;
8564;SDS011;4320;51.498;6.556;2022-10-30T17:42:32;21.75;;;12.02;;
8564;SDS011;4320;51.498;6.556;2022-10-30T17:45:02;18.17;;;11.23;;
8564;SDS011;4320;51.498;6.556;2022-10-30T17:47:31;18.35;;;10.70;;
8564;SDS011;4320;51.498;6.556;2022-10-30T17:49:56;13.35;;;8.00;;
8564;SDS011;4320;51.498;6.556;2022-10-30T17:52:23;15.20;;;8.77;;
8564;SDS011;4320;51.498;6.556;2022-10-30T17:54:49;16.33;;;8.57;;
8564;SDS011;4320;51.498;6.556;2022-10-30T17:57:17;15.13;;;9.00;;
8564;SDS011;4320;51.498;6.556;2022-10-30T17:59:43;25.10;;;15.88;;